createdAt,value
2017-07-22T14:31:51.726Z,29.91
2017-07-22T14:34:20.750Z,29.50
2017-07-22T14:36:50.295Z,29.35
2017-07-22T14:39:20.435Z,29.23
2017-07-22T14:41:49.900Z,29.41
2017-07-22T14:44:19.419Z,29.45
2017-07-22T14:46:48.814Z,29.34
2017-07-22T14:49:18.290Z,29.32
2017-07-22T14:51:47.583Z,29.43
2017-07-22T14:54:16.702Z,29.54
2017-07-22T14:56:46.236Z,29.67
2017-07-22T14:59:15.472Z,29.74
2017-07-22T15:01:45.008Z,29.58
2017-07-22T15:04:14.159Z,29.47
2017-07-22T15:06:43.826Z,29.37
2017-07-22T15:09:13.297Z,29.02
2017-07-22T15:11:42.670Z,29.36
2017-07-22T15:14:12.811Z,29.46
2017-07-22T15:16:41.914Z,29.33
2017-07-22T15:19:11.065Z,29.12
2017-07-22T15:21:40.019Z,29.18
2017-07-22T15:24:09.024Z,29.40
2017-07-22T15:26:38.511Z,29.32
2017-07-22T15:29:07.843Z,29.29
2017-07-22T15:31:37.058Z,29.21
2017-07-22T15:34:07.124Z,29.15
2017-07-22T15:36:36.258Z,29.25
2017-07-22T15:39:05.850Z,29.04
2017-07-22T15:41:35.162Z,28.70
2017-07-22T15:44:04.928Z,28.53
2017-07-22T15:46:34.927Z,28.52
2017-07-22T15:49:03.284Z,28.65
2017-07-22T15:51:31.416Z,28.61
2017-07-22T15:54:00.748Z,28.81
2017-07-22T15:56:30.024Z,29.17
2017-07-22T15:58:59.174Z,28.79
2017-07-22T16:01:28.706Z,28.42
2017-07-22T16:03:58.029Z,28.30
2017-07-22T16:06:27.247Z,28.36
2017-07-22T16:08:56.368Z,28.37
2017-07-22T16:11:25.570Z,28.36
2017-07-22T16:13:54.678Z,28.49
2017-07-22T16:16:23.723Z,28.43
2017-07-22T16:18:54.013Z,28.31
2017-07-22T16:21:24.044Z,28.30
2017-07-22T16:23:53.742Z,28.31
2017-07-22T16:26:23.969Z,28.24
2017-07-22T16:28:53.685Z,28.19
2017-07-22T16:31:24.596Z,28.20
2017-07-22T16:33:54.370Z,28.39
2017-07-22T16:36:23.468Z,28.60
2017-07-22T16:38:52.636Z,28.63
2017-07-22T16:41:22.135Z,28.61
2017-07-22T16:43:50.954Z,28.39
2017-07-22T16:46:20.400Z,28.36
2017-07-22T16:48:49.997Z,28.37
2017-07-22T16:51:19.260Z,28.34
2017-07-22T16:53:48.783Z,28.37
2017-07-22T16:56:17.889Z,28.37
2017-07-22T16:58:47.641Z,28.39
2017-07-22T17:01:16.941Z,28.38
2017-07-22T17:03:45.652Z,28.39
2017-07-22T17:06:14.887Z,28.19
2017-07-22T17:08:44.630Z,28.11
2017-07-22T17:11:14.034Z,28.17
2017-07-22T17:13:43.502Z,28.15
2017-07-22T17:16:13.024Z,28.16
2017-07-22T17:18:43.027Z,28.20
2017-07-22T17:21:12.649Z,28.19
2017-07-22T17:23:41.751Z,28.16
2017-07-22T17:26:10.747Z,28.13
2017-07-22T17:28:39.931Z,28.06
2017-07-22T17:31:09.514Z,27.95
2017-07-22T17:33:38.849Z,27.96
2017-07-22T17:36:08.255Z,27.93
2017-07-22T17:38:37.677Z,27.97
2017-07-22T17:41:06.992Z,27.92
2017-07-22T17:43:36.036Z,27.82
2017-07-22T17:46:05.108Z,27.77
2017-07-22T17:48:34.398Z,27.58
2017-07-22T17:51:04.485Z,27.49
2017-07-22T17:53:33.689Z,27.52
2017-07-22T17:56:02.690Z,27.49
2017-07-22T17:58:33.015Z,27.49
2017-07-22T18:01:03.092Z,27.59
2017-07-22T18:03:31.611Z,27.64
2017-07-22T18:06:01.201Z,27.69
2017-07-22T18:08:30.189Z,27.49
2017-07-22T18:10:59.896Z,27.47
2017-07-22T18:13:29.280Z,27.30
2017-07-22T18:15:58.560Z,27.18
2017-07-22T18:18:28.101Z,27.17
2017-07-22T18:20:57.348Z,27.10
2017-07-22T18:23:26.398Z,27.06
2017-07-22T18:25:55.731Z,27.06
2017-07-22T18:28:25.046Z,26.97
2017-07-22T18:30:54.290Z,26.78
2017-07-22T18:33:24.838Z,26.90
2017-07-22T18:35:53.928Z,26.97
2017-07-22T18:38:23.175Z,26.83
2017-07-22T18:40:53.340Z,26.73
2017-07-22T18:43:23.231Z,26.60
2017-07-22T18:45:53.020Z,26.47
2017-07-22T18:48:22.392Z,26.59
2017-07-22T18:50:53.145Z,26.57
2017-07-22T18:53:22.031Z,26.54
2017-07-22T18:55:50.783Z,26.69
2017-07-22T18:58:20.760Z,26.70
2017-07-22T19:00:50.127Z,26.53
2017-07-22T19:03:19.513Z,26.60
2017-07-22T19:05:49.076Z,26.65
2017-07-22T19:08:18.323Z,26.66
2017-07-22T19:10:47.832Z,26.67
2017-07-22T19:13:17.029Z,26.71
2017-07-22T19:15:46.106Z,26.67
2017-07-22T19:18:15.436Z,26.71
2017-07-22T19:20:44.582Z,26.59
2017-07-22T19:23:14.127Z,26.58
2017-07-22T19:25:43.259Z,26.55
2017-07-22T19:28:12.709Z,26.53
2017-07-22T19:30:41.887Z,26.46
2017-07-22T19:33:11.443Z,26.42
2017-07-22T19:35:40.794Z,26.35
2017-07-22T19:38:10.562Z,26.05
2017-07-22T19:40:39.598Z,25.25
2017-07-22T19:43:09.318Z,24.81
2017-07-22T19:45:38.447Z,24.77
2017-07-22T19:48:08.172Z,24.69
2017-07-22T19:50:37.703Z,24.23
2017-07-22T19:53:07.205Z,24.46
2017-07-22T19:55:36.591Z,24.57
2017-07-22T19:58:06.163Z,24.62
2017-07-22T20:00:33.830Z,24.62
2017-07-22T20:03:01.255Z,24.67
2017-07-22T20:05:28.656Z,24.63
2017-07-22T20:07:56.096Z,24.65
2017-07-22T20:10:23.561Z,24.74
2017-07-22T20:12:51.007Z,24.79
2017-07-22T20:15:18.454Z,24.80
2017-07-22T20:17:46.002Z,24.81
2017-07-22T20:20:13.441Z,24.77
2017-07-22T20:22:40.878Z,24.57
2017-07-22T20:25:08.292Z,24.53
2017-07-22T20:27:35.732Z,24.62
2017-07-22T20:30:03.157Z,24.65
2017-07-22T20:32:30.625Z,24.67
2017-07-22T20:34:58.046Z,24.73
2017-07-22T20:37:25.464Z,24.78
2017-07-22T20:39:52.935Z,24.73
2017-07-22T20:42:20.447Z,24.73
2017-07-22T20:44:47.844Z,24.72
2017-07-22T20:47:15.318Z,24.81
2017-07-22T20:49:42.764Z,24.83
2017-07-22T20:52:10.312Z,24.81
2017-07-22T20:54:37.818Z,24.72
2017-07-22T20:57:05.236Z,24.57
2017-07-22T20:59:32.957Z,24.54
2017-07-22T21:02:00.379Z,24.46
2017-07-22T21:04:27.786Z,24.42
2017-07-22T21:06:55.195Z,24.35
2017-07-22T21:09:22.638Z,24.27
2017-07-22T21:11:50.076Z,24.27
2017-07-22T21:14:17.502Z,24.31
2017-07-22T21:16:44.931Z,24.37
2017-07-22T21:19:12.352Z,24.30
2017-07-22T21:21:39.844Z,24.24
2017-07-22T21:24:07.269Z,24.21
2017-07-22T21:26:34.872Z,24.19
2017-07-22T21:29:02.332Z,24.22
2017-07-22T21:31:30.158Z,24.21
2017-07-22T21:33:57.577Z,24.19
2017-07-22T21:36:25.024Z,24.24
2017-07-22T21:38:52.522Z,24.28
2017-07-22T21:41:19.930Z,24.30
2017-07-22T21:43:47.467Z,24.32
2017-07-22T21:46:14.919Z,24.31
2017-07-22T21:48:42.334Z,24.35
2017-07-22T21:51:09.751Z,24.38
2017-07-22T21:53:37.168Z,24.33
2017-07-22T21:56:04.643Z,24.35
2017-07-22T21:58:32.074Z,24.36
2017-07-22T22:00:59.476Z,24.42
2017-07-22T22:03:26.935Z,24.48
2017-07-22T22:05:54.344Z,24.51
2017-07-22T22:08:21.761Z,24.40
2017-07-22T22:10:49.273Z,24.28
2017-07-22T22:13:16.691Z,24.19
2017-07-22T22:15:44.107Z,24.13
2017-07-22T22:18:11.660Z,24.06
2017-07-22T22:20:39.079Z,24.07
2017-07-22T22:23:06.505Z,24.19
2017-07-22T22:25:33.939Z,24.22
2017-07-22T22:28:01.895Z,24.23
2017-07-22T22:30:29.296Z,24.28
2017-07-22T22:32:56.712Z,24.30
2017-07-22T22:35:24.156Z,24.22
2017-07-22T22:37:51.606Z,24.11
2017-07-22T22:40:19.036Z,23.94
2017-07-22T22:42:46.468Z,23.75
2017-07-22T22:45:13.967Z,23.78
2017-07-22T22:47:41.424Z,23.77
2017-07-22T22:50:09.458Z,23.66
2017-07-22T22:52:36.859Z,23.69
2017-07-22T22:55:04.311Z,23.61
2017-07-22T22:57:31.738Z,23.47
2017-07-22T22:59:59.182Z,23.49
2017-07-22T23:02:26.586Z,23.45
2017-07-22T23:04:54.003Z,23.18
2017-07-22T23:07:21.431Z,23.27
2017-07-22T23:09:48.856Z,23.22
2017-07-22T23:12:16.299Z,23.07
2017-07-22T23:14:43.770Z,22.95
2017-07-22T23:17:11.239Z,22.82
2017-07-22T23:19:38.659Z,22.64
2017-07-22T23:22:06.244Z,22.53
2017-07-22T23:24:33.688Z,22.53
2017-07-22T23:27:01.111Z,22.40
2017-07-22T23:29:28.554Z,22.36
2017-07-22T23:31:55.963Z,22.24
2017-07-22T23:34:23.468Z,22.20
2017-07-22T23:36:50.902Z,22.12
2017-07-22T23:39:18.343Z,22.21
2017-07-22T23:41:45.778Z,22.22
2017-07-22T23:44:13.192Z,22.22
2017-07-22T23:46:40.617Z,22.14
2017-07-22T23:49:08.029Z,22.21
2017-07-22T23:51:35.438Z,22.21
2017-07-22T23:54:02.882Z,22.28
2017-07-22T23:56:30.284Z,22.31
2017-07-22T23:58:57.754Z,22.43
